Yuma, AZ

12:04 PM MST on October 24, 2014 (GMT -0700)
Caballero Park | Change Station
CLOSE
Current Station
Personal Weather Station
Location: Yuma, AZ
Elevation: 200 ft
Nearby Weather Stations

Elev 200 ft 32.67 °N, 114.63 °W | Updated 11 minutes ago

Clear
Clear
92.8 °F
Feels Like 91 °F
N
3.8
Wind Variable Wind from NE

Today
High -- | Low -- °F
--% Chance of Precip.
Yesterday
High -- | Low -- °F
Precip. -- in
6:49 AM 5:55 PM
New Moon, 1% visible
Pressure 29.96 in
Visibility 10.0 miles
Clouds Clear
Heat Index 91 °F
Dew Point 55 °F
Humidity 28%
Rainfall 0.00 in
Snow Depth Not available.
UV 6 out of 12
Pollen 6.10 out of 12
Air Quality Not available.
Flu Activity No Activity
METAR KNYL 241857Z 04004KT 10SM CLR 34/07 A2997 RMK AO2 SLP144 T03440072

More Conditions Fewer Conditions

Pressure 29.96 in
Visibility 10.0 miles
Clouds Clear
Heat Index 91 °F
Dew Point 55 °F
Humidity 28%
Rainfall 0.00 in
Snow Depth Not available.
UV 6 out of 12
Pollen 6.10 out of 12
Air Quality Not available.
Flu Activity No Activity
METAR KNYL 241857Z 04004KT 10SM CLR 34/07 A2997 RMK AO2 SLP144 T03440072

More Conditions Fewer Conditions

10-Day Weather Forecast

Almanac

Astronomy

Oct. 24, 2014 Rise Set
Actual Time 6:49 AM MST 5:55 PM MST
Civil Twilight 6:24 AM MST 6:20 PM MST
Nautical Twilight 5:55 AM MST 6:49 PM MST
Astronomical Twilight 5:27 AM MST 7:17 PM MST
Moon 7:30 AM MST 6:41 PM MST
Length of Visible Light 11h 55m
Length of Day
11h 05m
Tomorrow will be 1m 51s shorter.
New Moon, 1% of the Moon is Illuminated
Today
New Moon
Oct 30
First Quarter
Nov 6
Full
Nov 14
Last Quarter
Nov 22
New

Today's Extremes

State Highs State Lows

Community

WunderPhotos

Upload Photos

1,764,636 photos uploaded!

Nearby

Snow Depth

Station Depth Elevation
White Horse Lake 0 in 7180 ft
Baker Butte 0 in 7300 ft
Wildcat 0 in 7850 ft
Baldy 0 in 9125 ft

Earthquake Activity

City Distance Mag. Time & Date
San Felipe, Mexico 100 miles 3.0 11:00 PM MST
2014-10-23
Alberto Oviedo Mota, Mexico 98 miles 3.5 9:05 PM MST
2014-10-21
Delta, Mexico 39 miles 2.5 8:53 PM MST
2014-10-21
Alberto Oviedo Mota, Mexico 49 miles 2.7 4:13 PM MST
2014-10-21
Minimum magnitude displayed is 2.5.

Coastal Water Temperatures

Place Temperature
No Stations Reporting

Nearby Weather Stations